createdAt,value
2024-02-19T00:00:31.144Z,2.06
2024-02-19T00:01:31.236Z,2.10
2024-02-19T00:02:31.074Z,2.11
2024-02-19T00:03:31.060Z,2.06
2024-02-19T00:04:31.124Z,2.00
2024-02-19T00:05:31.040Z,2.02
2024-02-19T00:06:31.108Z,2.06
2024-02-19T00:07:31.122Z,2.02
2024-02-19T00:08:31.026Z,2.04
2024-02-19T00:09:31.077Z,2.07
2024-02-19T00:10:30.986Z,1.99
2024-02-19T00:11:31.088Z,2.07
2024-02-19T00:12:31.046Z,1.97
2024-02-19T00:13:30.962Z,1.89
2024-02-19T00:14:30.937Z,2.04
2024-02-19T00:15:30.923Z,1.92
2024-02-19T00:16:30.921Z,1.92
2024-02-19T00:17:30.920Z,1.91
2024-02-19T00:18:30.982Z,1.91
2024-02-19T00:19:31.065Z,1.92
2024-02-19T00:20:30.873Z,1.95
2024-02-19T00:21:30.862Z,1.92
2024-02-19T00:22:30.859Z,1.91
2024-02-19T00:23:30.837Z,1.87
2024-02-19T00:24:30.823Z,1.87
2024-02-19T00:25:30.939Z,1.91
2024-02-19T00:26:30.804Z,1.91
2024-02-19T00:27:30.793Z,1.95
2024-02-19T00:28:30.784Z,1.95
2024-02-19T00:29:30.768Z,1.91
2024-02-19T00:30:30.760Z,1.95
2024-02-19T00:31:30.755Z,1.91
2024-02-19T00:32:30.916Z,1.94
2024-02-19T00:33:30.846Z,1.95
2024-02-19T00:34:30.805Z,1.92
2024-02-19T00:35:30.722Z,1.97
2024-02-19T00:36:30.688Z,1.95
2024-02-19T00:37:30.707Z,1.85
2024-02-19T00:38:30.669Z,1.97
2024-02-19T00:39:30.683Z,1.95
2024-02-19T00:40:30.641Z,1.92
2024-02-19T00:41:30.654Z,1.97
2024-02-19T00:42:30.631Z,1.92
2024-02-19T00:43:30.638Z,1.91
2024-02-19T00:44:30.598Z,1.87
2024-02-19T00:45:30.585Z,1.95
2024-02-19T00:46:30.579Z,1.95
2024-02-19T00:47:30.580Z,1.94
2024-02-19T00:48:30.639Z,1.91
2024-02-19T00:49:30.653Z,1.92
2024-02-19T00:50:30.592Z,1.92
2024-02-19T00:51:30.538Z,1.92
2024-02-19T00:52:30.511Z,1.87
2024-02-19T00:53:30.496Z,1.89
2024-02-19T00:54:30.509Z,1.88
2024-02-19T00:55:30.604Z,1.87
2024-02-19T00:56:30.492Z,1.78
2024-02-19T00:57:30.480Z,1.85
2024-02-19T00:58:30.438Z,1.81
2024-02-19T00:59:30.428Z,1.85
2024-02-19T01:00:30.424Z,1.74
2024-02-19T01:01:30.522Z,1.74
2024-02-19T01:02:30.396Z,1.74
2024-02-19T01:03:30.389Z,1.80
2024-02-19T01:04:30.455Z,1.76
2024-02-19T01:05:30.411Z,1.73
2024-02-19T01:06:30.349Z,1.74
2024-02-19T01:07:30.408Z,1.76
2024-02-19T01:08:30.332Z,1.63
2024-02-19T01:09:30.317Z,1.76
2024-02-19T01:10:30.310Z,1.71
2024-02-19T01:11:30.329Z,1.60
2024-02-19T01:12:30.284Z,1.63
2024-02-19T01:13:30.325Z,1.63
2024-02-19T01:14:30.273Z,1.67
2024-02-19T01:15:30.253Z,1.67
2024-02-19T01:16:30.238Z,1.63
2024-02-19T01:17:30.287Z,1.67
2024-02-19T01:18:30.232Z,1.60
2024-02-19T01:19:30.332Z,1.62
2024-02-19T01:20:30.228Z,1.66
2024-02-19T01:21:30.213Z,1.73
2024-02-19T01:22:30.174Z,1.62
2024-02-19T01:23:30.164Z,1.60
2024-02-19T01:24:30.218Z,1.53
2024-02-19T01:25:30.185Z,1.53
2024-02-19T01:26:30.122Z,1.59
2024-02-19T01:27:30.114Z,1.63
2024-02-19T01:28:30.107Z,1.58
2024-02-19T01:29:30.114Z,1.59
2024-02-19T01:30:30.080Z,1.56
2024-02-19T01:31:30.094Z,1.59
2024-02-19T01:32:30.101Z,1.58
2024-02-19T01:33:30.110Z,1.56
2024-02-19T01:34:30.109Z,1.55
2024-02-19T01:35:30.025Z,1.60
2024-02-19T01:36:30.032Z,1.53
2024-02-19T01:37:30.021Z,1.53
2024-02-19T01:38:30.691Z,1.56
2024-02-19T01:39:29.980Z,1.59
2024-02-19T01:40:30.018Z,1.41
2024-02-19T01:41:30.013Z,1.52
2024-02-19T01:42:29.953Z,1.53
2024-02-19T01:43:30.054Z,1.55
2024-02-19T01:44:29.923Z,1.55
2024-02-19T01:45:29.952Z,1.55
2024-02-19T01:46:29.915Z,1.55
2024-02-19T01:47:29.926Z,1.53
2024-02-19T01:48:29.908Z,1.48
2024-02-19T01:49:29.981Z,1.48
2024-02-19T01:50:29.890Z,1.50
2024-02-19T01:51:29.844Z,1.48
2024-02-19T01:52:29.945Z,1.40
2024-02-19T01:53:29.824Z,1.48
2024-02-19T01:54:29.814Z,1.40
2024-02-19T01:55:29.924Z,1.48
2024-02-19T01:56:29.790Z,1.50
2024-02-19T01:57:29.781Z,1.41
2024-02-19T01:58:29.766Z,1.35
2024-02-19T01:59:29.824Z,1.38
2024-02-19T02:00:29.809Z,1.41
2024-02-19T02:01:29.873Z,1.38
2024-02-19T02:02:29.782Z,1.41
2024-02-19T02:03:29.764Z,1.41
2024-02-19T02:04:29.765Z,1.38
2024-02-19T02:05:29.687Z,1.40
2024-02-19T02:06:29.702Z,1.41
2024-02-19T02:07:29.695Z,1.32
2024-02-19T02:08:29.654Z,1.26
2024-02-19T02:09:29.649Z,1.32
2024-02-19T02:10:29.704Z,1.31
2024-02-19T02:11:29.719Z,1.38
2024-02-19T02:12:29.608Z,1.32
2024-02-19T02:13:29.655Z,1.35
2024-02-19T02:14:29.585Z,1.40
2024-02-19T02:15:29.587Z,1.35
2024-02-19T02:16:29.590Z,1.40
2024-02-19T02:17:29.660Z,1.31
2024-02-19T02:18:29.664Z,1.26
2024-02-19T02:19:29.723Z,1.32
2024-02-19T02:20:29.558Z,1.22
2024-02-19T02:21:29.529Z,1.22
2024-02-19T02:22:29.570Z,1.20
2024-02-19T02:23:29.565Z,1.20
2024-02-19T02:24:29.532Z,1.19
2024-02-19T02:25:29.507Z,1.19
2024-02-19T02:26:29.446Z,1.22
2024-02-19T02:27:29.442Z,1.19
2024-02-19T02:28:29.432Z,1.17
2024-02-19T02:29:29.440Z,1.22
2024-02-19T02:30:29.465Z,1.19
2024-02-19T02:31:29.405Z,1.16
2024-02-19T02:32:29.418Z,1.14
2024-02-19T02:33:29.603Z,1.13
2024-02-19T02:34:29.457Z,1.17
2024-02-19T02:35:29.350Z,1.05
2024-02-19T02:36:29.361Z,1.16
2024-02-19T02:37:29.551Z,1.17
2024-02-19T02:38:29.346Z,1.20
2024-02-19T02:39:29.397Z,1.08
2024-02-19T02:40:29.403Z,1.02
2024-02-19T02:41:29.282Z,1.14
2024-02-19T02:42:29.271Z,1.08
2024-02-19T02:43:29.311Z,1.10
2024-02-19T02:44:29.251Z,1.10
2024-02-19T02:45:29.251Z,1.14
2024-02-19T02:46:29.263Z,1.08
2024-02-19T02:47:29.220Z,1.10
2024-02-19T02:48:29.270Z,1.10
2024-02-19T02:49:29.344Z,1.13
2024-02-19T02:50:29.186Z,1.08
2024-02-19T02:51:29.195Z,1.13
2024-02-19T02:52:29.165Z,1.10
2024-02-19T02:53:29.175Z,1.10
2024-02-19T02:54:29.160Z,1.06
2024-02-19T02:55:29.236Z,1.17
2024-02-19T02:56:29.116Z,1.17
2024-02-19T02:57:29.114Z,1.22
2024-02-19T02:58:29.704Z,1.19
2024-02-19T02:59:29.092Z,1.24
2024-02-19T03:00:29.077Z,1.30
2024-02-19T03:01:29.238Z,1.30
2024-02-19T03:02:29.064Z,1.34
2024-02-19T03:03:29.052Z,1.35
2024-02-19T03:04:29.096Z,1.38
2024-02-19T03:05:29.038Z,1.41
2024-02-19T03:06:29.120Z,1.38
2024-02-19T03:07:29.165Z,1.48
2024-02-19T03:08:28.985Z,1.40
2024-02-19T03:09:28.984Z,1.35
2024-02-19T03:10:28.958Z,1.50
2024-02-19T03:11:29.010Z,1.52
2024-02-19T03:12:28.948Z,1.52
2024-02-19T03:13:29.025Z,1.56
2024-02-19T03:14:28.925Z,1.55
2024-02-19T03:15:28.901Z,1.59
2024-02-19T03:16:28.900Z,1.58
2024-02-19T03:17:28.966Z,1.58
2024-02-19T03:18:28.925Z,1.73
2024-02-19T03:19:28.951Z,1.63
2024-02-19T03:20:28.855Z,1.60
2024-02-19T03:21:28.870Z,1.67
2024-02-19T03:22:28.830Z,1.70
2024-02-19T03:23:28.825Z,1.60
2024-02-19T03:24:28.823Z,1.59
2024-02-19T03:25:28.886Z,1.68
2024-02-19T03:26:37.639Z,1.66
2024-02-19T03:27:29.771Z,1.63
2024-02-19T03:28:28.760Z,1.68
2024-02-19T03:29:28.776Z,1.60
2024-02-19T03:30:28.743Z,1.71
2024-02-19T03:31:28.741Z,1.63
2024-02-19T03:32:28.723Z,1.66
2024-02-19T03:33:28.782Z,1.58
2024-02-19T03:34:28.999Z,1.66
2024-02-19T03:35:28.683Z,1.66
2024-02-19T03:36:28.680Z,1.66
2024-02-19T03:37:28.818Z,1.66
2024-02-19T03:38:28.654Z,1.58
2024-02-19T03:39:28.638Z,1.59
2024-02-19T03:40:28.672Z,1.60
2024-02-19T03:41:28.619Z,1.63
2024-02-19T03:42:28.616Z,1.62
2024-02-19T03:43:28.704Z,1.62
2024-02-19T03:44:28.583Z,1.56
2024-02-19T03:45:28.583Z,1.60
2024-02-19T03:46:28.569Z,1.52
2024-02-19T03:47:28.618Z,1.53
2024-02-19T03:48:28.658Z,1.59
2024-02-19T03:49:28.590Z,1.53
2024-02-19T03:50:28.516Z,1.58
2024-02-19T03:51:28.525Z,1.53
2024-02-19T03:52:28.520Z,1.55
2024-02-19T03:53:28.608Z,1.58
2024-02-19T03:54:28.511Z,1.53
2024-02-19T03:55:28.655Z,1.59
2024-02-19T03:56:28.454Z,1.59
2024-02-19T03:57:28.437Z,1.63
2024-02-19T03:58:28.425Z,1.62
2024-02-19T03:59:28.491Z,1.58
2024-02-19T04:00:28.438Z,1.58
2024-02-19T04:01:28.486Z,1.59
2024-02-19T04:02:28.428Z,1.62
2024-02-19T04:03:28.448Z,1.58
2024-02-19T04:04:28.426Z,1.68
2024-02-19T04:05:28.371Z,1.80
2024-02-19T04:06:28.397Z,1.76
2024-02-19T04:07:28.393Z,1.80
2024-02-19T04:08:28.336Z,1.85
2024-02-19T04:09:28.355Z,1.89
2024-02-19T04:10:28.345Z,1.88
2024-02-19T04:11:28.315Z,1.97
2024-02-19T04:12:28.287Z,1.94
2024-02-19T04:13:28.450Z,1.95
2024-02-19T04:14:28.256Z,1.97
2024-02-19T04:15:28.247Z,2.04
2024-02-19T04:16:28.279Z,2.02
2024-02-19T04:17:28.277Z,1.99
2024-02-19T04:18:28.296Z,1.99
2024-02-19T04:19:28.244Z,2.11
2024-02-19T04:20:28.186Z,2.13
2024-02-19T04:21:28.211Z,2.14
2024-02-19T04:22:28.253Z,2.18
2024-02-19T04:23:28.150Z,2.25
2024-02-19T04:24:28.171Z,2.20
2024-02-19T04:25:28.216Z,2.20
2024-02-19T04:26:28.140Z,2.24
2024-02-19T04:27:28.166Z,2.32
2024-02-19T04:28:28.153Z,2.32
2024-02-19T04:29:28.118Z,2.32
2024-02-19T04:30:28.106Z,2.28
2024-02-19T04:31:28.099Z,2.32
2024-02-19T04:32:28.066Z,2.29
2024-02-19T04:33:28.135Z,2.38
2024-02-19T04:34:28.199Z,2.31
2024-02-19T04:35:28.020Z,2.33
2024-02-19T04:36:28.014Z,2.29
2024-02-19T04:37:28.136Z,2.32
2024-02-19T04:38:27.986Z,2.35
2024-02-19T04:39:27.974Z,2.32
2024-02-19T04:40:28.039Z,2.33
2024-02-19T04:41:27.972Z,2.32
2024-02-19T04:42:28.009Z,2.35
2024-02-19T04:43:28.127Z,2.33
2024-02-19T04:44:27.929Z,2.29
2024-02-19T04:45:27.933Z,2.31
2024-02-19T04:46:28.028Z,2.32
2024-02-19T04:47:27.896Z,2.38
2024-02-19T04:48:27.893Z,2.33
2024-02-19T04:49:27.928Z,2.28
2024-02-19T04:50:27.921Z,2.36
2024-02-19T04:51:27.840Z,2.32
2024-02-19T04:52:27.891Z,2.28
2024-02-19T04:53:27.822Z,2.29
2024-02-19T04:54:27.811Z,2.25
2024-02-19T04:55:27.860Z,2.32
2024-02-19T04:56:27.817Z,2.31
2024-02-19T04:57:27.814Z,2.31
2024-02-19T04:58:27.834Z,2.25
2024-02-19T04:59:27.758Z,2.35
2024-02-19T05:00:27.739Z,2.31
2024-02-19T05:01:27.833Z,2.31
2024-02-19T05:02:27.724Z,2.29
2024-02-19T05:03:27.722Z,2.31
2024-02-19T05:04:27.863Z,2.32
2024-02-19T05:05:27.750Z,2.39
2024-02-19T05:06:27.691Z,2.43
2024-02-19T05:07:27.786Z,2.36
2024-02-19T05:08:27.710Z,2.44
2024-02-19T05:09:27.632Z,2.43
2024-02-19T05:10:27.672Z,2.50
2024-02-19T05:11:27.693Z,2.47
2024-02-19T05:12:27.615Z,2.47
2024-02-19T05:13:27.698Z,2.53
2024-02-19T05:14:27.610Z,2.60
2024-02-19T05:15:27.574Z,2.51
2024-02-19T05:16:27.629Z,2.61
2024-02-19T05:17:27.582Z,2.65
2024-02-19T05:18:27.584Z,2.60
2024-02-19T05:19:27.583Z,2.68
2024-02-19T05:20:27.514Z,2.67
2024-02-19T05:21:27.510Z,2.75
2024-02-19T05:22:27.563Z,2.67
2024-02-19T05:23:27.478Z,2.72
2024-02-19T05:24:27.492Z,2.72
2024-02-19T05:25:27.590Z,2.74
2024-02-19T05:26:27.458Z,2.79
2024-02-19T05:27:27.470Z,2.85
2024-02-19T05:28:27.493Z,2.85
2024-02-19T05:29:27.434Z,2.89
2024-02-19T05:30:27.413Z,2.82
2024-02-19T05:31:27.648Z,2.83
2024-02-19T05:32:27.374Z,2.80
2024-02-19T05:33:27.367Z,2.79
2024-02-19T05:34:27.396Z,2.86
2024-02-19T05:35:27.428Z,2.86
2024-02-19T05:36:27.330Z,2.82
2024-02-19T05:37:27.370Z,2.85
2024-02-19T05:38:27.341Z,2.83
2024-02-19T05:39:27.297Z,2.86
2024-02-19T05:40:27.568Z,2.86
2024-02-19T05:41:27.290Z,2.93
2024-02-19T05:42:27.263Z,2.97
2024-02-19T05:43:27.353Z,2.97
2024-02-19T05:44:27.258Z,3.01
2024-02-19T05:45:27.257Z,3.01
2024-02-19T05:46:27.337Z,3.01
2024-02-19T05:47:27.264Z,3.07
2024-02-19T05:48:27.273Z,3.08
2024-02-19T05:49:27.387Z,3.04
2024-02-19T05:50:27.176Z,3.11
2024-02-19T05:51:27.172Z,3.10
2024-02-19T05:52:27.204Z,3.11
2024-02-19T05:53:27.186Z,3.08
2024-02-19T05:54:27.176Z,3.23
2024-02-19T05:55:28.586Z,3.19
2024-02-19T05:56:27.105Z,3.14
2024-02-19T05:57:27.088Z,3.32
2024-02-19T05:58:27.140Z,3.37
2024-02-19T05:59:27.094Z,3.29
2024-02-19T06:00:27.783Z,3.36
2024-02-19T06:01:27.334Z,3.45
2024-02-19T06:02:27.277Z,3.36
2024-02-19T06:03:27.036Z,3.41
2024-02-19T06:04:27.106Z,3.45
2024-02-19T06:05:27.033Z,3.48
2024-02-19T06:06:27.089Z,3.47
2024-02-19T06:07:27.021Z,3.50
2024-02-19T06:08:26.968Z,3.50
2024-02-19T06:09:27.006Z,3.45
2024-02-19T06:10:27.013Z,3.56
2024-02-19T06:11:26.996Z,3.50
2024-02-19T06:12:26.922Z,3.45
2024-02-19T06:13:27.017Z,3.50
2024-02-19T06:14:26.907Z,3.53
2024-02-19T06:15:26.916Z,3.62
2024-02-19T06:16:26.906Z,3.58
2024-02-19T06:17:26.955Z,3.60
2024-02-19T06:18:27.141Z,3.58
2024-02-19T06:19:26.953Z,3.62
2024-02-19T06:20:26.844Z,3.74
2024-02-19T06:21:26.844Z,3.69
2024-02-19T06:22:26.833Z,3.69
2024-02-19T06:23:26.815Z,3.63
2024-02-19T06:24:26.810Z,3.69
2024-02-19T06:25:26.860Z,3.70
2024-02-19T06:26:26.792Z,3.77
2024-02-19T06:27:26.781Z,3.78
2024-02-19T06:28:26.780Z,3.84
2024-02-19T06:29:26.753Z,3.83
2024-02-19T06:30:26.751Z,3.94
2024-02-19T06:31:26.807Z,3.94
2024-02-19T06:32:26.731Z,4.05
2024-02-19T06:33:26.805Z,3.95
2024-02-19T06:34:26.845Z,3.99
2024-02-19T06:35:26.789Z,3.99
2024-02-19T06:36:26.685Z,4.10
2024-02-19T06:37:26.706Z,4.20
2024-02-19T06:38:26.652Z,4.20
2024-02-19T06:39:26.717Z,4.19
2024-02-19T06:40:26.721Z,4.35
2024-02-19T06:41:26.701Z,4.41
2024-02-19T06:42:27.247Z,4.40
2024-02-19T06:43:26.721Z,4.49
2024-02-19T06:44:26.577Z,4.58
2024-02-19T06:45:26.568Z,4.68
2024-02-19T06:46:26.582Z,4.74
2024-02-19T06:47:26.545Z,4.82
2024-02-19T06:48:26.616Z,4.86
2024-02-19T06:49:26.656Z,4.99
2024-02-19T06:50:27.246Z,5.07
2024-02-19T06:51:26.500Z,5.07
2024-02-19T06:52:27.315Z,5.08
2024-02-19T06:53:26.474Z,5.20
2024-02-19T06:54:30.539Z,5.28
2024-02-19T06:55:27.986Z,5.38
2024-02-19T06:56:27.257Z,5.39
2024-02-19T06:57:26.416Z,5.50
2024-02-19T06:58:27.331Z,5.48
2024-02-19T06:59:26.407Z,5.59
2024-02-19T07:00:26.407Z,5.59
2024-02-19T07:01:26.444Z,5.69
2024-02-19T07:02:27.309Z,5.65
2024-02-19T07:03:26.387Z,5.68
2024-02-19T07:04:26.429Z,5.72
2024-02-19T07:05:34.520Z,5.69
2024-02-19T07:06:26.441Z,5.72
2024-02-19T07:07:26.386Z,5.73
2024-02-19T07:08:26.304Z,5.82
2024-02-19T07:09:26.280Z,5.84
2024-02-19T07:10:26.314Z,5.90
2024-02-19T07:11:26.332Z,5.90
2024-02-19T07:12:26.242Z,5.91
2024-02-19T07:13:26.344Z,5.83
2024-02-19T07:14:26.221Z,5.91
2024-02-19T07:15:26.240Z,5.94
2024-02-19T07:16:26.238Z,5.93
2024-02-19T07:17:26.313Z,6.01
2024-02-19T07:18:26.387Z,5.94
2024-02-19T07:19:26.270Z,5.91
2024-02-19T07:20:26.174Z,5.99
2024-02-19T07:21:26.202Z,5.97
2024-02-19T07:22:26.306Z,5.99
2024-02-19T07:23:26.139Z,5.98
2024-02-19T07:24:26.115Z,6.02
2024-02-19T07:25:26.152Z,6.02
2024-02-19T07:26:26.224Z,6.05
2024-02-19T07:27:26.073Z,6.08
2024-02-19T07:28:26.155Z,6.01
2024-02-19T07:29:26.143Z,6.09
2024-02-19T07:30:26.117Z,6.04
2024-02-19T07:31:26.198Z,6.09
2024-02-19T07:32:26.033Z,6.09
2024-02-19T07:33:26.062Z,5.98
2024-02-19T07:34:26.151Z,6.16
2024-02-19T07:35:25.991Z,6.11
2024-02-19T07:36:25.974Z,6.17
2024-02-19T07:37:26.196Z,6.22
2024-02-19T07:38:25.981Z,6.28
2024-02-19T07:39:25.943Z,6.31
2024-02-19T07:40:26.002Z,6.30
2024-02-19T07:41:25.933Z,6.31
2024-02-19T07:42:25.907Z,6.35
2024-02-19T07:43:25.946Z,6.41
2024-02-19T07:44:25.882Z,6.51
2024-02-19T07:45:25.886Z,6.52
2024-02-19T07:46:25.921Z,6.62
2024-02-19T07:47:25.898Z,6.54
2024-02-19T07:48:25.899Z,6.64
2024-02-19T07:49:25.968Z,6.72
2024-02-19T07:50:25.898Z,6.77
2024-02-19T07:51:25.853Z,6.78
2024-02-19T07:52:25.880Z,6.85
2024-02-19T07:53:26.330Z,6.85
2024-02-19T07:54:25.786Z,6.99
2024-02-19T07:55:25.911Z,7.02
2024-02-19T07:56:26.330Z,7.03
2024-02-19T07:57:25.743Z,7.18
2024-02-19T07:58:25.856Z,7.20
2024-02-19T07:59:25.711Z,7.31
2024-02-19T08:00:25.701Z,7.45
2024-02-19T08:01:25.869Z,7.50
2024-02-19T08:02:25.764Z,7.60
2024-02-19T08:03:25.682Z,7.67
2024-02-19T08:04:25.727Z,7.69
2024-02-19T08:05:25.719Z,7.80
2024-02-19T08:06:25.706Z,7.88
2024-02-19T08:07:25.662Z,7.88
2024-02-19T08:08:25.615Z,7.95
2024-02-19T08:09:25.629Z,7.95
2024-02-19T08:10:25.689Z,7.94
2024-02-19T08:11:25.575Z,7.95
2024-02-19T08:12:25.830Z,7.94
2024-02-19T08:13:25.764Z,7.94
2024-02-19T08:14:25.586Z,8.10
2024-02-19T08:15:25.538Z,8.05
2024-02-19T08:16:28.281Z,8.10
2024-02-19T08:17:26.298Z,8.01
2024-02-19T08:18:25.631Z,8.03
2024-02-19T08:19:25.675Z,8.01
2024-02-19T08:20:25.489Z,8.03
2024-02-19T08:21:26.309Z,8.13
2024-02-19T08:22:25.585Z,8.08
2024-02-19T08:23:25.461Z,8.13
2024-02-19T08:24:25.456Z,8.13
2024-02-19T08:25:25.614Z,8.13
2024-02-19T08:26:25.445Z,8.13
2024-02-19T08:27:25.429Z,8.03
2024-02-19T08:28:25.530Z,8.08
2024-02-19T08:29:25.468Z,8.08
2024-02-19T08:30:25.487Z,8.13
2024-02-19T08:31:25.438Z,8.12
2024-02-19T08:32:25.467Z,8.16
2024-02-19T08:33:25.367Z,8.16
2024-02-19T08:34:25.696Z,8.15
2024-02-19T08:35:25.635Z,8.24
2024-02-19T08:36:25.348Z,8.33
2024-02-19T08:37:25.500Z,8.36
2024-02-19T08:38:25.384Z,8.41
2024-02-19T08:39:25.288Z,8.49
2024-02-19T08:40:25.390Z,8.49
2024-02-19T08:41:25.401Z,8.58
2024-02-19T08:42:25.265Z,8.53
2024-02-19T08:43:25.407Z,8.53
2024-02-19T08:44:25.229Z,8.63
2024-02-19T08:45:27.524Z,8.67
2024-02-19T08:46:26.271Z,8.66
2024-02-19T08:47:25.262Z,8.79
2024-02-19T08:48:25.358Z,8.69
2024-02-19T08:49:25.267Z,8.73
2024-02-19T08:50:25.145Z,8.76
2024-02-19T08:51:25.513Z,8.71
2024-02-19T08:52:25.200Z,8.64
2024-02-19T08:53:25.103Z,8.67
2024-02-19T08:54:25.108Z,8.64
2024-02-19T08:55:25.130Z,8.67
2024-02-19T08:56:25.067Z,8.70
2024-02-19T08:57:25.388Z,8.66
2024-02-19T08:58:25.148Z,8.73
2024-02-19T08:59:25.046Z,8.70
2024-02-19T09:00:25.033Z,8.73
2024-02-19T09:01:25.137Z,8.81
2024-02-19T09:02:25.004Z,8.85
2024-02-19T09:03:25.041Z,8.85
2024-02-19T09:04:25.110Z,8.91
2024-02-19T09:05:25.018Z,8.87
2024-02-19T09:06:25.062Z,8.88
2024-02-19T09:07:25.068Z,8.81
2024-02-19T09:08:24.933Z,8.89
2024-02-19T09:09:24.924Z,8.88
2024-02-19T09:10:24.964Z,8.92
2024-02-19T09:11:24.920Z,9.02
2024-02-19T09:12:24.911Z,9.02
2024-02-19T09:13:24.961Z,9.00
2024-02-19T09:14:24.862Z,9.06
2024-02-19T09:15:24.900Z,9.08
2024-02-19T09:16:25.856Z,9.23
2024-02-19T09:17:24.851Z,9.21
2024-02-19T09:18:24.905Z,9.23
2024-02-19T09:19:24.952Z,9.28
2024-02-19T09:20:24.832Z,9.19
2024-02-19T09:21:24.781Z,9.29
2024-02-19T09:22:24.861Z,9.36
2024-02-19T09:23:25.756Z,9.47
2024-02-19T09:24:24.745Z,9.48
2024-02-19T09:25:25.134Z,9.51
2024-02-19T09:26:24.730Z,9.65
2024-02-19T09:27:24.749Z,9.62
2024-02-19T09:28:24.777Z,9.64
2024-02-19T09:29:24.719Z,9.72
2024-02-19T09:30:24.689Z,9.72
2024-02-19T09:31:24.878Z,9.73
2024-02-19T09:32:24.704Z,9.74
2024-02-19T09:33:24.746Z,9.74
2024-02-19T09:34:24.822Z,9.74
2024-02-19T09:35:24.650Z,9.84
2024-02-19T09:36:24.629Z,9.84
2024-02-19T09:37:24.711Z,9.84
2024-02-19T09:38:24.589Z,9.86
2024-02-19T09:39:24.606Z,9.91
2024-02-19T09:40:24.782Z,9.86
2024-02-19T09:41:24.553Z,9.86
2024-02-19T09:42:24.590Z,9.87
2024-02-19T09:43:24.648Z,9.87
2024-02-19T09:44:24.518Z,9.86
2024-02-19T09:45:24.531Z,9.91
2024-02-19T09:46:24.591Z,10.01
2024-02-19T09:47:24.509Z,9.95
2024-02-19T09:48:24.639Z,9.95
2024-02-19T09:49:24.644Z,10.09
2024-02-19T09:50:24.511Z,10.04
2024-02-19T09:51:32.647Z,10.16
2024-02-19T09:52:29.317Z,10.16
2024-02-19T09:53:25.451Z,10.07
2024-02-19T09:54:24.425Z,10.09
2024-02-19T09:55:24.931Z,10.16
2024-02-19T09:56:24.407Z,10.13
2024-02-19T09:57:24.377Z,10.07
2024-02-19T09:58:24.795Z,10.16
2024-02-19T09:59:24.354Z,10.22
2024-02-19T10:00:24.349Z,10.16
2024-02-19T10:01:24.431Z,10.17
2024-02-19T10:02:24.328Z,10.25
2024-02-19T10:03:24.304Z,10.23
2024-02-19T10:04:24.435Z,10.16
2024-02-19T10:05:24.422Z,10.20
2024-02-19T10:06:24.328Z,10.16
2024-02-19T10:07:24.368Z,10.22
2024-02-19T10:08:24.252Z,10.22
2024-02-19T10:09:24.244Z,10.20
2024-02-19T10:10:24.307Z,10.19
2024-02-19T10:11:24.232Z,10.19
2024-02-19T10:12:24.212Z,10.13
2024-02-19T10:13:24.623Z,10.23
2024-02-19T10:14:24.181Z,10.17
2024-02-19T10:15:24.169Z,10.09
2024-02-19T10:16:24.209Z,10.17
2024-02-19T10:17:24.229Z,10.15
2024-02-19T10:18:24.229Z,10.10
2024-02-19T10:19:24.168Z,10.07
2024-02-19T10:20:24.120Z,10.07
2024-02-19T10:21:24.140Z,10.02
2024-02-19T10:22:24.264Z,10.01
2024-02-19T10:23:24.628Z,10.02
2024-02-19T10:24:24.067Z,9.99
2024-02-19T10:25:24.202Z,9.92
2024-02-19T10:26:24.045Z,9.91
2024-02-19T10:27:24.057Z,9.87
2024-02-19T10:28:24.042Z,9.91
2024-02-19T10:29:24.020Z,9.80
2024-02-19T10:30:24.031Z,9.74
2024-02-19T10:31:24.159Z,9.80
2024-02-19T10:32:24.024Z,9.80
2024-02-19T10:33:24.138Z,9.77
2024-02-19T10:34:24.057Z,9.74
2024-02-19T10:35:23.969Z,9.76
2024-02-19T10:36:23.931Z,9.66
2024-02-19T10:37:24.043Z,9.72
2024-02-19T10:38:23.928Z,9.62
2024-02-19T10:39:23.897Z,9.59
2024-02-19T10:40:23.901Z,9.59
2024-02-19T10:41:23.874Z,9.61
2024-02-19T10:42:23.859Z,9.69
2024-02-19T10:43:23.896Z,9.69
2024-02-19T10:44:23.838Z,9.62
2024-02-19T10:45:23.845Z,9.64
2024-02-19T10:46:23.844Z,9.61
2024-02-19T10:47:23.812Z,9.56
2024-02-19T10:48:23.903Z,9.51
2024-02-19T10:49:23.904Z,9.50
2024-02-19T10:50:23.853Z,9.51
2024-02-19T10:51:23.784Z,9.50
2024-02-19T10:52:23.896Z,9.46
2024-02-19T10:53:23.740Z,9.44
2024-02-19T10:54:23.743Z,9.32
2024-02-19T10:55:32.563Z,9.36
2024-02-19T10:56:24.759Z,9.36
2024-02-19T10:57:23.690Z,9.37
2024-02-19T10:58:23.792Z,9.31
2024-02-19T10:59:23.673Z,9.37
2024-02-19T11:00:23.664Z,9.32
2024-02-19T11:01:23.760Z,9.29
2024-02-19T11:02:23.698Z,9.29
2024-02-19T11:03:23.660Z,9.28
2024-02-19T11:04:23.637Z,9.22
2024-02-19T11:05:23.627Z,9.26
2024-02-19T11:06:23.657Z,9.18
2024-02-19T11:07:23.760Z,9.28
2024-02-19T11:08:23.574Z,9.14
2024-02-19T11:09:28.951Z,9.10
2024-02-19T11:10:24.599Z,9.08
2024-02-19T11:11:23.858Z,9.18
2024-02-19T11:12:23.527Z,9.03
2024-02-19T11:13:23.767Z,9.04
2024-02-19T11:14:23.504Z,9.03
2024-02-19T11:15:23.511Z,8.99
2024-02-19T11:16:23.591Z,8.94
2024-02-19T11:17:23.465Z,8.85
2024-02-19T11:18:23.896Z,8.82
2024-02-19T11:19:23.538Z,8.85
2024-02-19T11:20:23.429Z,8.87
2024-02-19T11:21:23.463Z,8.89
2024-02-19T11:22:23.456Z,8.87
2024-02-19T11:23:23.402Z,8.78
2024-02-19T11:24:23.385Z,8.76
2024-02-19T11:25:23.482Z,8.79
2024-02-19T11:26:23.373Z,8.82
2024-02-19T11:27:23.385Z,8.67
2024-02-19T11:28:23.496Z,8.64
2024-02-19T11:29:27.736Z,8.67
2024-02-19T11:30:24.350Z,8.74
2024-02-19T11:31:23.322Z,8.78
2024-02-19T11:32:23.333Z,8.76
2024-02-19T11:33:23.285Z,8.66
2024-02-19T11:34:23.359Z,8.64
2024-02-19T11:35:23.321Z,8.71
2024-02-19T11:36:23.319Z,8.64
2024-02-19T11:37:23.290Z,8.71
2024-02-19T11:38:23.868Z,8.61
2024-02-19T11:39:23.223Z,8.69
2024-02-19T11:40:23.250Z,8.69
2024-02-19T11:41:23.189Z,8.64
2024-02-19T11:42:23.377Z,8.64
2024-02-19T11:43:23.206Z,8.56
2024-02-19T11:44:23.162Z,8.58
2024-02-19T11:45:23.884Z,8.64
2024-02-19T11:46:23.946Z,8.51
2024-02-19T11:47:23.141Z,8.51
2024-02-19T11:48:23.231Z,8.51
2024-02-19T11:49:23.229Z,8.52
2024-02-19T11:50:23.126Z,8.60
2024-02-19T11:51:23.087Z,8.58
2024-02-19T11:52:23.105Z,8.52
2024-02-19T11:53:23.101Z,8.53
2024-02-19T11:54:23.170Z,8.52
2024-02-19T11:55:23.070Z,8.53
2024-02-19T11:56:23.022Z,8.49
2024-02-19T11:57:26.635Z,8.53
2024-02-19T11:58:23.015Z,8.51
2024-02-19T11:59:22.997Z,8.51
2024-02-19T12:00:22.996Z,8.49
2024-02-19T12:01:23.117Z,8.51
2024-02-19T12:02:23.038Z,8.48
2024-02-19T12:03:22.951Z,8.44
2024-02-19T12:04:22.997Z,8.49
2024-02-19T12:05:22.988Z,8.44
2024-02-19T12:06:23.000Z,8.46
2024-02-19T12:07:23.025Z,8.51
2024-02-19T12:08:22.888Z,8.53
2024-02-19T12:09:22.923Z,8.53
2024-02-19T12:10:22.984Z,8.52
2024-02-19T12:11:22.889Z,8.56
2024-02-19T12:12:22.889Z,8.53
2024-02-19T12:13:22.876Z,8.55
2024-02-19T12:14:22.823Z,8.51
2024-02-19T12:15:22.963Z,8.58
2024-02-19T12:16:23.426Z,8.61
2024-02-19T12:17:22.839Z,8.67
2024-02-19T12:18:22.906Z,8.61
2024-02-19T12:19:22.994Z,8.63
2024-02-19T12:20:22.873Z,8.66
2024-02-19T12:21:22.754Z,8.70
2024-02-19T12:22:22.811Z,8.64
2024-02-19T12:23:22.723Z,8.64
2024-02-19T12:24:22.736Z,8.66
2024-02-19T12:25:22.889Z,8.69
2024-02-19T12:26:22.683Z,8.78
2024-02-19T12:27:22.673Z,8.79
2024-02-19T12:28:22.695Z,8.82
2024-02-19T12:29:22.651Z,8.89
2024-02-19T12:30:22.717Z,8.84
2024-02-19T12:31:22.729Z,8.91
2024-02-19T12:32:22.676Z,8.89
2024-02-19T12:33:22.714Z,8.89
2024-02-19T12:34:22.738Z,8.95
2024-02-19T12:35:22.938Z,9.00
2024-02-19T12:36:22.670Z,8.97
2024-02-19T12:37:22.618Z,8.97
2024-02-19T12:38:22.548Z,9.04
2024-02-19T12:39:22.540Z,9.00
2024-02-19T12:40:22.570Z,9.06
2024-02-19T12:41:22.539Z,9.00
2024-02-19T12:42:22.612Z,9.03
2024-02-19T12:43:22.571Z,9.10
2024-02-19T12:44:23.441Z,8.99
2024-02-19T12:45:22.474Z,9.00
2024-02-19T12:46:22.525Z,9.03
2024-02-19T12:47:23.583Z,9.06
2024-02-19T12:48:22.609Z,9.11
2024-02-19T12:49:22.596Z,9.03
2024-02-19T12:50:22.581Z,9.04
2024-02-19T12:51:22.404Z,8.99
2024-02-19T12:52:22.441Z,9.00
2024-02-19T12:53:22.382Z,9.02
2024-02-19T12:54:22.419Z,9.03
2024-02-19T12:55:22.455Z,9.00
2024-02-19T12:56:22.361Z,8.95
2024-02-19T12:57:22.426Z,9.03
2024-02-19T12:58:22.378Z,8.99
2024-02-19T12:59:22.331Z,9.00
2024-02-19T13:00:22.338Z,9.03
2024-02-19T13:01:28.218Z,9.02
2024-02-19T13:02:23.417Z,9.04
2024-02-19T13:03:22.270Z,8.95
2024-02-19T13:04:25.337Z,9.04
2024-02-19T13:05:23.499Z,9.14
2024-02-19T13:06:22.389Z,9.13
2024-02-19T13:07:22.337Z,9.11
2024-02-19T13:08:22.219Z,9.08
2024-02-19T13:09:22.210Z,9.14
2024-02-19T13:10:22.271Z,9.14
2024-02-19T13:11:22.219Z,9.00
2024-02-19T13:12:22.228Z,9.11
2024-02-19T13:13:22.231Z,9.14
2024-02-19T13:14:22.153Z,9.10
2024-02-19T13:15:22.139Z,9.04
2024-02-19T13:16:22.340Z,9.11
2024-02-19T13:17:28.453Z,9.02